GCFV Airport Information

Runway Information
Runway 01 Length 11598 ft width 148 ft
Elevation 37 ft Threshold 3481 ft Heading 2
Runway 19 Length 11598 ft Width 148 ft
Elevation 75 ft Threshold 1719 ft Heading 182
Airport Frequencies
Type APP Name CANARIAS A Frequency 129.3 MHZ
Type ATIS Name ATIS Frequency 118.65 MHZ
Type GND Name GND Frequency 121.7 MHZ
Type TWR Name TWR Frequency 118.5 MHZ
Airport Navaids
Type VOR-DME Name Fuerteventura Frequency 114100 KHZ
Airport Weather Information & NOTAM
ADDS - METARS form results

(0607 UTC 03 December 2022)
Data provider http://aviationweather.gov/metar/data/
 
METAR text: GCFV 030600Z 30004KT 9999 SCT029 17/15 Q1009
Conditions at: GCFV (FUERTEVENTURA AR, ES) observed 0600 UTC 03 December 2022
Temperature: 17.0°C (63°F)
Dewpoint: 15.0°C (59°F) [RH = 88%]
Pressure (altimeter): 29.79 inches Hg (1009.0 mb)
Winds: from the WNW (300 degrees) at 5 MPH (4 knots; 2.1 m/s)
Visibility: 6 or more miles (10+ km)
Ceiling: at least 12,000 feet AGL
Clouds: scattered clouds at 2900 feet AGL
Weather: no significant weather observed at this time

METAR text: GCFV 030530Z AUTO 29006KT 9999 FEW037 BKN047 18/16 Q1009
Conditions at: GCFV (FUERTEVENTURA AR, ES) observed 0530 UTC 03 December 2022
Temperature: 18.0°C (64°F)
Dewpoint: 16.0°C (61°F) [RH = 88%]
Pressure (altimeter): 29.79 inches Hg (1009.0 mb)
Winds: from the WNW (290 degrees) at 7 MPH (6 knots; 3.1 m/s)
Visibility: 6 or more miles (10+ km)
Ceiling: 4700 feet AGL
Clouds: few clouds at 3700 feet AGL
broken clouds at 4700 feet AGL
Weather: no significant weather observed at this time

Forecast for: GCFV (FUERTEVENTURA AR, ES)
Text: TAF GCFV 030200Z 0303/0403 35005KT 9999 SCT030 TX22/0314Z TN17/0306Z
Forecast period: 0300 to 1600 UTC 03 December 2022
Forecast type: FROM: standard forecast or significant change
Winds: from the N (350 degrees) at 6 MPH (5 knots; 2.6 m/s)
Visibility: 6 or more miles (10+ km)
Ceiling: at least 12,000 feet AGL
Clouds: scattered clouds at 3000 feet AGL
Weather: no significant weather forecast for this period
Text: PROB30
Forecast period: 0300 UTC 03 December 2022 to 0000 UTC 04 December 2022
Forecast type: TEMPORARY: The following changes expected for less than half the time period
Visibility: missing
Ceiling: unknown
Clouds: missing
Weather: DZ  (moderate drizzle)
Text: TEMPO 0303/0324 DZ
Forecast period: 1600 UTC 03 December 2022 to 0300 UTC 04 December 2022
Forecast type: BECOMING: Conditions expected to become as follows by 1800 UTC 03 December 2022
Winds: from the N (360 degrees) at 17 MPH (15 knots; 7.7 m/s)
Visibility: 6 or more miles (10+ km)
Ceiling: at least 12,000 feet AGL
Clouds: scattered clouds at 3000 feet AGL
Weather: no significant weather forecast for this period